»·PEaware :: N800DW KAUS-KELP

N800DW :: KAUS-KELP

FLIGHT INFORMATION

Flight Status: Arrived
Operator: Privately registered:
United States
More flights under this callsign
Pilot: Scott L. (17677)
Aircraft: Unknown
(EPIC)
More flights by this aircraft type
Origin: KAUS Austin Bergstrom Intl
United States
Destination: KELP El Paso Intl
United States
More flights between these airports :: More routes between these airports
Route: +ELP
File this flight plan on PilotEdge
Remarks:
Altitude:
(Current/Filed)
300ft
Speed:
(Current/Filed)
300kts
Departed: 22-Apr-18 07:51 AM
Arrived: 22-Apr-18 08:57 AM
Distance/Time
Traveled:
1064nm/1:06
Distance/Time
To Go:
Arrived

Flight Plot

Page will automatically refresh every two minutes.

Flight plan parsing failed; only flown route is shown


Map Options




Map Legend


Flown Route
Filed Route
Departure Airport
Arrival Airport
Navaid (VOR, NDB)
Fix

Horizontal Profiles

Position Reports

Time Latitude Longitude Heading Altitude Ground
Speed
22-Apr-18 07:49 30.196791 -97.672586 282 30778ft 228kts
22-Apr-18 07:50 30.209269 -97.745098 283 30778ft 230kts
22-Apr-18 07:51 30.222811 -97.817389 283 30777ft 231kts
22-Apr-18 07:52 30.236603 -97.889948 283 30775ft 231kts
22-Apr-18 07:53 30.250412 -97.962573 283 30779ft 231kts
22-Apr-18 07:54 30.264148 -98.034991 283 30790ft 231kts
22-Apr-18 07:55 30.277816 -98.107271 283 30799ft 230kts
22-Apr-18 07:56 30.291445 -98.179578 283 30805ft 230kts
22-Apr-18 07:57 30.305009 -98.251761 283 30806ft 230kts
22-Apr-18 07:58 30.318548 -98.324049 283 30808ft 229kts
22-Apr-18 07:59 30.331992 -98.396061 283 30811ft 229kts
22-Apr-18 08:00 30.345370 -98.467946 283 30818ft 228kts
22-Apr-18 08:01 30.358665 -98.539620 283 30828ft 228kts
22-Apr-18 08:02 30.371906 -98.611230 283 30838ft 227kts
22-Apr-18 08:03 30.384836 -98.681403 283 30863ft 228kts
22-Apr-18 08:04 30.398101 -98.753580 283 30866ft 230kts
22-Apr-18 08:05 30.411414 -98.826273 283 30866ft 231kts
22-Apr-18 08:06 30.425033 -98.898872 283 30863ft 231kts
22-Apr-18 08:07 30.431708 -98.933702 283 30857ft 231kts
22-Apr-18 08:08 30.431708 -98.933702 283 30857ft 231kts
22-Apr-18 08:09 30.431708 -98.933702 283 30857ft 231kts
22-Apr-18 08:10 30.431708 -98.933702 283 30857ft 231kts
22-Apr-18 08:11 30.435567 -98.953843 283 30853ft 232kts
22-Apr-18 08:12 30.450347 -99.031049 283 29856ft 257kts
22-Apr-18 08:13 30.604865 -99.850977 283 29863ft 248kts
22-Apr-18 08:14 30.620553 -99.928356 283 29862ft 244kts
22-Apr-18 08:15 30.632829 -100.005033 281 29862ft 242kts
22-Apr-18 08:16 30.636790 -100.029587 281 29861ft 242kts
22-Apr-18 08:17 30.900897 -102.014529 279 29896ft 242kts
22-Apr-18 08:18 31.040364 -103.126494 286 29894ft 244kts
22-Apr-18 08:19 31.062970 -103.201299 282 29897ft 244kts
22-Apr-18 08:20 31.082830 -103.283285 284 28526ft 280kts
22-Apr-18 08:21 31.104076 -103.369277 285 27065ft 296kts
22-Apr-18 08:22 31.127223 -103.463024 286 25543ft 305kts
22-Apr-18 08:23 31.150795 -103.558805 286 24020ft 311kts
22-Apr-18 08:24 31.173903 -103.653034 286 23367ft 298kts
22-Apr-18 08:25 31.196281 -103.744660 286 22896ft 294kts
22-Apr-18 08:26 31.218749 -103.836446 286 22416ft 294kts
22-Apr-18 08:27 31.241309 -103.928652 286 21930ft 296kts
22-Apr-18 08:28 31.263924 -104.021345 287 21438ft 298kts
22-Apr-18 08:29 31.286612 -104.114664 287 20940ft 300kts
22-Apr-18 08:30 31.309352 -104.208523 287 20438ft 302kts
22-Apr-18 08:31 31.332354 -104.303507 285 19917ft 315kts
22-Apr-18 08:32 31.356851 -104.405574 285 19430ft 335kts
22-Apr-18 08:33 31.382264 -104.511649 285 18932ft 341kts
22-Apr-18 08:34 31.407867 -104.618932 285 18254ft 347kts
22-Apr-18 08:35 31.433448 -104.726554 285 17465ft 349kts
22-Apr-18 08:36 31.458946 -104.834268 285 16941ft 345kts
22-Apr-18 08:37 31.482324 -104.933226 285 15930ft 293kts
22-Apr-18 08:38 31.503177 -105.022026 285 14921ft 276kts
22-Apr-18 08:39 31.523201 -105.107563 285 13920ft 270kts
22-Apr-18 08:40 31.542943 -105.192163 285 12919ft 268kts
22-Apr-18 08:41 31.563851 -105.282094 285 12024ft 303kts
22-Apr-18 08:42 31.585786 -105.376686 285 11999ft 299kts
22-Apr-18 08:43 31.607546 -105.470900 285 12000ft 298kts
22-Apr-18 08:44 31.629133 -105.564712 285 11999ft 298kts
22-Apr-18 08:45 31.651196 -105.660967 285 11410ft 315kts
22-Apr-18 08:46 31.673069 -105.756647 285 9704ft 297kts
22-Apr-18 08:47 31.694134 -105.849211 285 8067ft 290kts
22-Apr-18 08:48 31.713534 -105.933921 290 7992ft 252kts
22-Apr-18 08:49 31.739393 -106.007582 293 7998ft 238kts
22-Apr-18 08:50 31.765170 -106.079473 293 7375ft 257kts
22-Apr-18 08:51 31.788725 -106.154608 276 5282ft 237kts
22-Apr-18 08:52 31.793331 -106.221637 274 5193ft 177kts
22-Apr-18 08:53 31.796120 -106.272346 274 5199ft 146kts
22-Apr-18 08:54 31.798883 -106.321585 272 4515ft 147kts
22-Apr-18 08:55 31.800965 -106.367013 274 3955ft 131kts
22-Apr-18 08:56 31.798550 -106.377035 145 3941ft 12kts
22-Apr-18 08:57 31.798524 -106.376823 358 3941ft 0kts
22-Apr-18 08:58 31.798524 -106.376823 358 3941ft 0kts
22-Apr-18 09:03 35.656044 -117.824904 31 2461ft 0kts
22-Apr-18 09:04 35.655971 -117.825233 216 2461ft 0kts

Navigation Log

Ident Type
Flight plan parsing failed, navigation log unavailable